Airfield :
LOGIN :

Register | Disclaimer

   EN    FR    IT 

 










Legend :    VFR   Marginal VFR   IFR   Intensive IFR   Very Intensive IFR
Visi :
Ceiling :
>= 8 km
>= 3000ft
5 to 8 km
1000 to 3000 ft
1500m to 5 km
500 to 1000 ft
800 to 1500m
200 to 500 ft
< 800m
< 200 ft
Symbols :   Thunderstorms  Fog  Heavy snow  Heavy precipitations  Wind > 20 kt
SIGMETs :     Misc.  Thunderstorms  Icing  Turbulence  Mountain Waves  Volcanic Ashes






- Airport Elevation : 1910 ft
- IATA code : RDZ


LFCR - Rodez

CURRENT METAR :
  • 102330Z AUTO 11004KT CAVOK 01/M02 Q1021 NOSIG

EXPIRED METARs :
  • 102300Z AUTO 10005KT CAVOK 01/M02 Q1021 NOSIG
  • 102230Z AUTO 12005KT CAVOK 00/M01 Q1021 NOSIG
  • 102200Z AUTO 12006KT CAVOK M00/M02 Q1021 NOSIG
  • 102130Z AUTO 13005KT CAVOK M01/M02 Q1022 NOSIG
  • 102100Z AUTO 12003KT CAVOK 00/M01 Q1022 NOSIG

TAF TAF LFCR
Valid from the 11 at 00:00 until the 12 at 00:00 UTC


102300Z 1100/1124 12005KT CAVOK
BECMG 1107/1109 28004KT 6000 -RA BKN008 OVC015
TEMPO 1109/1115 3000 RA OVC005
BECMG 1115/1117 27012KT 9999 NSW BKN012
PROB40
TEMPO 1116/1124 SHRA BKN004 SCT015TCU



MET'MAP, your aeronautical weather chart ! - Copyright ORBIFLY December 2007 - Disclaimer

ORBIFLY MET'MAP TEAM :

Programming & Development : Alexandra Zaïnal
Concept & original design : Baudouin d'Aumeries
Assistance for programming : Marc-Olivier Méhu
Technical & hardware support : Manuel Goepfert

Contact : metmap@orbifly.com




SOURCES & CREDITS :

   NOAA